Time,TemperatureF,DewpointF,PressureIn,WindDirection,WindDirectionDegrees,WindSpeedMPH,WindSpeedGustMPH,Humidity,HourlyPrecipIn,Conditions,Clouds,dailyrainin,SolarRadiationWatts/m^2,SoftwareType,DateUTC
2013-08-02 00:08:00,79.7,76.0,30.03,ENE,78,1.0,7.0,88,0.01,,,0.00,0,weatherlink.com 1.10,2013-08-02 04:08:00,
2013-08-02 00:23:00,79.4,76.0,30.03,ENE,78,0.0,2.0,89,0.01,,,0.00,0,weatherlink.com 1.10,2013-08-02 04:23:00,
2013-08-02 00:38:00,78.9,76.0,30.03,ENE,73,3.0,7.0,90,0.01,,,0.00,0,weatherlink.com 1.10,2013-08-02 04:38:00,
2013-08-02 00:53:00,79.1,76.0,30.03,ENE,73,2.0,5.0,90,0.01,,,0.00,0,weatherlink.com 1.10,2013-08-02 04:53:00,
2013-08-02 01:08:00,79.0,76.0,30.03,East,82,0.0,2.0,90,0.00,,,0.00,0,weatherlink.com 1.10,2013-08-02 05:08:00,
2013-08-02 01:23:00,78.7,76.0,30.02,SSE,147,1.0,5.0,90,0.00,,,0.00,0,weatherlink.com 1.10,2013-08-02 05:23:00,
2013-08-02 01:38:00,78.4,76.0,30.02,SE,146,1.0,5.0,91,0.01,,,0.01,0,weatherlink.com 1.10,2013-08-02 05:38:00,
2013-08-02 01:53:00,78.1,75.0,30.02,ESE,106,3.0,7.0,90,0.01,,,0.01,0,weatherlink.com 1.10,2013-08-02 05:53:00,
2013-08-02 02:08:00,78.2,75.0,30.02,ESE,121,3.0,8.0,90,0.01,,,0.01,0,weatherlink.com 1.10,2013-08-02 06:08:00,
2013-08-02 02:23:00,78.4,75.0,30.02,ESE,114,4.0,8.0,89,0.00,,,0.01,0,weatherlink.com 1.10,2013-08-02 06:23:00,
2013-08-02 02:38:00,78.6,75.0,30.02,ESE,112,2.0,7.0,89,0.00,,,0.01,0,weatherlink.com 1.10,2013-08-02 06:38:00,
2013-08-02 02:53:00,78.7,75.0,30.02,ENE,78,5.0,8.0,89,0.00,,,0.01,0,weatherlink.com 1.10,2013-08-02 06:53:00,
2013-08-02 03:08:00,78.7,75.0,30.01,ESE,113,4.0,5.0,89,0.00,,,0.01,0,weatherlink.com 1.10,2013-08-02 07:08:00,
2013-08-02 03:23:00,78.9,76.0,30.01,ESE,112,3.0,8.0,89,0.00,,,0.01,0,weatherlink.com 1.10,2013-08-02 07:23:00,
2013-08-02 03:38:00,78.7,75.0,30.01,ESE,110,2.0,8.0,89,0.00,,,0.01,0,weatherlink.com 1.10,2013-08-02 07:38:00,
2013-08-02 03:53:00,78.6,75.0,30.02,ESE,110,2.0,4.0,89,0.00,,,0.01,0,weatherlink.com 1.10,2013-08-02 07:53:00,
2013-08-02 04:08:00,78.8,76.0,30.02,ESE,109,1.0,5.0,90,0.00,,,0.01,0,weatherlink.com 1.10,2013-08-02 08:08:00,
2013-08-02 04:23:00,78.6,76.0,30.01,ESE,109,2.0,5.0,90,0.00,,,0.01,0,weatherlink.com 1.10,2013-08-02 08:23:00,
2013-08-02 04:38:00,78.6,76.0,30.02,ESE,109,3.0,5.0,90,0.00,,,0.01,0,weatherlink.com 1.10,2013-08-02 08:38:00,
2013-08-02 04:53:00,78.5,75.0,30.02,ESE,109,0.0,4.0,90,0.00,,,0.01,0,weatherlink.com 1.10,2013-08-02 08:53:00,
2013-08-02 05:08:00,78.5,75.0,30.02,ESE,102,3.0,7.0,90,0.00,,,0.01,0,weatherlink.com 1.10,2013-08-02 09:08:00,
2013-08-02 05:23:00,78.5,75.0,30.02,ESE,102,2.0,6.0,89,0.00,,,0.01,0,weatherlink.com 1.10,2013-08-02 09:23:00,
2013-08-02 05:38:00,78.5,75.0,30.03,ESE,105,1.0,5.0,89,0.00,,,0.01,0,weatherlink.com 1.10,2013-08-02 09:38:00,
2013-08-02 05:53:00,78.6,76.0,30.03,ESE,105,1.0,5.0,90,0.00,,,0.01,0,weatherlink.com 1.10,2013-08-02 09:53:00,
2013-08-02 06:08:00,78.5,75.0,30.03,ESE,105,0.0,1.0,90,0.00,,,0.01,7,weatherlink.com 1.10,2013-08-02 10:08:00,
2013-08-02 06:23:00,78.4,76.0,30.04,ESE,105,1.0,4.0,91,0.00,,,0.01,18,weatherlink.com 1.10,2013-08-02 10:23:00,
2013-08-02 06:38:00,78.6,76.0,30.04,ESE,105,1.0,2.0,91,0.00,,,0.01,21,weatherlink.com 1.10,2013-08-02 10:38:00,
2013-08-02 06:53:00,78.6,76.0,30.05,ESE,105,0.0,2.0,91,0.00,,,0.01,28,weatherlink.com 1.10,2013-08-02 10:53:00,
2013-08-02 07:08:00,78.6,76.0,30.05,ESE,105,1.0,2.0,91,0.00,,,0.01,47,weatherlink.com 1.10,2013-08-02 11:08:00,
2013-08-02 07:23:00,79.3,77.0,30.06,ESE,105,1.0,5.0,91,0.00,,,0.01,288,weatherlink.com 1.10,2013-08-02 11:23:00,
2013-08-02 07:38:00,80.8,77.0,30.06,ESE,105,1.0,4.0,89,0.00,,,0.01,334,weatherlink.com 1.10,2013-08-02 11:38:00,
2013-08-02 08:09:00,83.2,78.0,30.05,ENE,78,7.0,8.0,83,0.00,,,0.01,146,weatherlink.com 1.10,2013-08-02 12:09:00,
2013-08-02 08:24:00,83.9,78.0,30.05,East,81,2.0,9.0,83,0.00,,,0.01,441,weatherlink.com 1.10,2013-08-02 12:24:00,
2013-08-02 08:39:00,84.5,78.0,30.06,ENE,76,4.0,12.0,81,0.00,,,0.01,114,weatherlink.com 1.10,2013-08-02 12:39:00,
2013-08-02 08:54:00,84.4,78.0,30.06,East,90,8.0,10.0,82,0.01,,,0.02,257,weatherlink.com 1.10,2013-08-02 12:54:00,
2013-08-02 09:09:00,85.4,78.0,30.06,East,96,5.0,18.0,79,0.01,,,0.02,575,weatherlink.com 1.10,2013-08-02 13:09:00,
2013-08-02 09:24:00,86.6,78.0,30.07,East,85,7.0,13.0,76,0.01,,,0.02,605,weatherlink.com 1.10,2013-08-02 13:24:00,
2013-08-02 09:39:00,87.6,78.0,30.07,NE,54,10.0,11.0,74,0.01,,,0.02,301,weatherlink.com 1.10,2013-08-02 13:39:00,
2013-08-02 09:54:00,87.4,79.0,30.07,East,96,9.0,18.0,75,0.00,,,0.02,708,weatherlink.com 1.10,2013-08-02 13:54:00,
2013-08-02 10:09:00,87.3,78.0,30.07,ENE,65,11.0,16.0,74,0.00,,,0.02,645,weatherlink.com 1.10,2013-08-02 14:09:00,
2013-08-02 10:24:00,87.6,78.0,30.07,East,82,8.0,16.0,74,0.00,,,0.02,821,weatherlink.com 1.10,2013-08-02 14:24:00,
2013-08-02 10:39:00,88.0,79.0,30.07,ENE,61,5.0,15.0,74,0.00,,,0.02,802,weatherlink.com 1.10,2013-08-02 14:39:00,
2013-08-02 10:54:00,88.6,79.0,30.07,East,90,8.0,14.0,73,0.00,,,0.02,846,weatherlink.com 1.10,2013-08-02 14:54:00,
2013-08-02 11:09:00,88.9,79.0,30.07,ENE,60,8.0,17.0,72,0.00,,,0.02,868,weatherlink.com 1.10,2013-08-02 15:09:00,
2013-08-02 11:24:00,89.0,78.0,30.07,ENE,69,9.0,15.0,71,0.00,,,0.02,842,weatherlink.com 1.10,2013-08-02 15:24:00,
2013-08-02 11:39:00,88.7,79.0,30.06,NE,48,6.0,15.0,72,0.00,,,0.02,854,weatherlink.com 1.10,2013-08-02 15:39:00,
2013-08-02 11:54:00,89.0,79.0,30.06,ENE,61,15.0,18.0,73,0.00,,,0.02,861,weatherlink.com 1.10,2013-08-02 15:54:00,
2013-08-02 12:09:00,88.7,79.0,30.06,East,83,10.0,21.0,73,0.00,,,0.02,874,weatherlink.com 1.10,2013-08-02 16:09:00,
2013-08-02 12:24:00,88.8,79.0,30.06,East,87,11.0,20.0,72,0.00,,,0.02,847,weatherlink.com 1.10,2013-08-02 16:24:00,
2013-08-02 12:39:00,88.5,78.0,30.05,NE,49,11.0,23.0,71,0.00,,,0.02,860,weatherlink.com 1.10,2013-08-02 16:39:00,
2013-08-02 12:54:00,88.5,78.0,30.05,ENE,62,15.0,21.0,71,0.00,,,0.02,860,weatherlink.com 1.10,2013-08-02 16:54:00,
2013-08-02 13:09:00,88.5,78.0,30.04,East,93,10.0,20.0,70,0.00,,,0.02,854,weatherlink.com 1.10,2013-08-02 17:09:00,
2013-08-02 13:24:00,88.8,78.0,30.04,ENE,57,15.0,18.0,71,0.00,,,0.02,838,weatherlink.com 1.10,2013-08-02 17:24:00,
2013-08-02 13:39:00,88.6,79.0,30.04,NE,41,6.0,18.0,72,0.00,,,0.02,830,weatherlink.com 1.10,2013-08-02 17:39:00,
2013-08-02 13:54:00,88.6,78.0,30.03,East,88,10.0,17.0,71,0.00,,,0.02,814,weatherlink.com 1.10,2013-08-02 17:54:00,
2013-08-02 14:09:00,88.6,78.0,30.03,ENE,78,10.0,19.0,71,0.00,,,0.02,793,weatherlink.com 1.10,2013-08-02 18:09:00,
2013-08-02 14:24:00,88.6,78.0,30.02,East,82,7.0,18.0,70,0.00,,,0.02,768,weatherlink.com 1.10,2013-08-02 18:24:00,
2013-08-02 14:39:00,88.3,78.0,30.02,East,83,13.0,18.0,72,0.00,,,0.02,733,weatherlink.com 1.10,2013-08-02 18:39:00,
2013-08-02 14:54:00,88.3,78.0,30.02,ENE,66,13.0,19.0,72,0.00,,,0.02,700,weatherlink.com 1.10,2013-08-02 18:54:00,
2013-08-02 15:09:00,88.1,78.0,30.02,NE,42,12.0,20.0,73,0.00,,,0.02,668,weatherlink.com 1.10,2013-08-02 19:09:00,
2013-08-02 15:24:00,88.2,77.0,30.02,ENE,67,9.0,18.0,69,0.00,,,0.02,624,weatherlink.com 1.10,2013-08-02 19:24:00,
2013-08-02 15:39:00,88.3,77.0,30.02,NE,51,15.0,17.0,69,0.00,,,0.02,547,weatherlink.com 1.10,2013-08-02 19:39:00,
2013-08-02 15:54:00,88.2,78.0,30.01,East,94,11.0,22.0,71,0.00,,,0.02,543,weatherlink.com 1.10,2013-08-02 19:54:00,
2013-08-02 16:09:00,88.0,78.0,30.01,ENE,75,13.0,17.0,71,0.00,,,0.02,492,weatherlink.com 1.10,2013-08-02 20:09:00,
2013-08-02 16:24:00,87.8,77.0,30.01,NE,54,9.0,15.0,71,0.00,,,0.02,448,weatherlink.com 1.10,2013-08-02 20:24:00,
2013-08-02 16:39:00,87.5,78.0,30.01,ENE,65,12.0,16.0,73,0.00,,,0.02,373,weatherlink.com 1.10,2013-08-02 20:39:00,
2013-08-02 16:54:00,86.9,79.0,30.02,East,90,7.0,16.0,76,0.00,,,0.02,330,weatherlink.com 1.10,2013-08-02 20:54:00,
2013-08-02 17:09:00,86.3,78.0,30.01,ENE,61,8.0,17.0,77,0.00,,,0.02,281,weatherlink.com 1.10,2013-08-02 21:09:00,
2013-08-02 17:24:00,86.0,78.0,30.02,East,81,8.0,16.0,78,0.00,,,0.02,227,weatherlink.com 1.10,2013-08-02 21:24:00,
2013-08-02 17:39:00,85.7,78.0,30.02,ENE,78,12.0,16.0,78,0.00,,,0.02,165,weatherlink.com 1.10,2013-08-02 21:39:00,
2013-08-02 17:54:00,85.3,78.0,30.02,East,86,9.0,17.0,78,0.00,,,0.02,125,weatherlink.com 1.10,2013-08-02 21:54:00,
2013-08-02 18:09:00,84.9,78.0,30.02,NE,41,6.0,16.0,79,0.00,,,0.02,83,weatherlink.com 1.10,2013-08-02 22:09:00,
2013-08-02 18:24:00,84.5,77.0,30.02,NE,55,11.0,15.0,79,0.00,,,0.02,39,weatherlink.com 1.10,2013-08-02 22:24:00,
2013-08-02 18:39:00,84.0,78.0,30.02,SE,129,9.0,16.0,81,0.00,,,0.02,16,weatherlink.com 1.10,2013-08-02 22:39:00,
2013-08-02 18:54:00,83.6,78.0,30.02,NE,52,9.0,18.0,82,0.00,,,0.02,5,weatherlink.com 1.10,2013-08-02 22:54:00,
2013-08-02 19:09:00,83.6,78.0,30.03,NE,46,6.0,18.0,83,0.00,,,0.02,0,weatherlink.com 1.10,2013-08-02 23:09:00,
2013-08-02 19:24:00,83.4,78.0,30.03,NE,46,13.0,18.0,83,0.00,,,0.02,0,weatherlink.com 1.10,2013-08-02 23:24:00,
2013-08-02 19:39:00,83.4,77.0,30.04,ENE,74,10.0,17.0,81,0.00,,,0.02,0,weatherlink.com 1.10,2013-08-02 23:39:00,
2013-08-02 19:54:00,83.4,77.0,30.05,ENE,77,18.0,18.0,81,0.00,,,0.02,0,weatherlink.com 1.10,2013-08-02 23:54:00,
2013-08-02 20:09:00,83.5,77.0,30.05,ENE,71,14.0,17.0,81,0.00,,,0.02,0,weatherlink.com 1.10,2013-08-03 00:09:00,
2013-08-02 20:24:00,83.4,77.0,30.06,East,79,10.0,22.0,80,0.00,,,0.02,0,weatherlink.com 1.10,2013-08-03 00:24:00,
2013-08-02 20:39:00,83.3,77.0,30.06,ENE,66,11.0,18.0,80,0.00,,,0.02,0,weatherlink.com 1.10,2013-08-03 00:39:00,
2013-08-02 20:54:00,83.4,77.0,30.07,NE,46,6.0,18.0,81,0.00,,,0.02,0,weatherlink.com 1.10,2013-08-03 00:54:00,
2013-08-02 21:09:00,83.5,77.0,30.07,ENE,75,5.0,14.0,81,0.00,,,0.02,0,weatherlink.com 1.10,2013-08-03 01:09:00,
2013-08-02 21:24:00,83.3,77.0,30.07,ENE,74,11.0,19.0,82,0.00,,,0.02,0,weatherlink.com 1.10,2013-08-03 01:24:00,
2013-08-02 21:39:00,83.2,78.0,30.08,East,98,6.0,18.0,83,0.00,,,0.02,0,weatherlink.com 1.10,2013-08-03 01:39:00,
2013-08-02 21:54:00,82.9,77.0,30.08,East,95,11.0,21.0,82,0.00,,,0.02,0,weatherlink.com 1.10,2013-08-03 01:54:00,
2013-08-02 22:10:00,82.9,77.0,30.08,East,92,14.0,18.0,82,0.00,,,0.02,0,weatherlink.com 1.10,2013-08-03 02:10:00,
2013-08-02 22:25:00,82.9,77.0,30.08,ENE,57,9.0,17.0,82,0.00,,,0.02,0,weatherlink.com 1.10,2013-08-03 02:25:00,
2013-08-02 22:40:00,82.9,77.0,30.08,ENE,75,9.0,22.0,82,0.00,,,0.02,0,weatherlink.com 1.10,2013-08-03 02:40:00,
2013-08-02 22:55:00,82.8,77.0,30.08,East,95,8.0,19.0,83,0.00,,,0.02,0,weatherlink.com 1.10,2013-08-03 02:55:00,
2013-08-02 23:10:00,82.8,77.0,30.08,ENE,76,10.0,17.0,83,0.00,,,0.02,0,weatherlink.com 1.10,2013-08-03 03:10:00,
2013-08-02 23:25:00,82.8,77.0,30.08,ENE,57,5.0,21.0,83,0.00,,,0.02,0,weatherlink.com 1.10,2013-08-03 03:25:00,
2013-08-02 23:40:00,82.9,78.0,30.08,East,79,7.0,17.0,84,0.00,,,0.02,0,weatherlink.com 1.10,2013-08-03 03:40:00,
2013-08-02 23:55:00,82.8,77.0,30.08,East,89,9.0,19.0,83,0.00,,,0.02,0,weatherlink.com 1.10,2013-08-03 03:55:00,